sensor_id;sensor_type;location;lat;lon;timestamp;P1;durP1;ratioP1;P2;durP2;ratioP2
67503;SDS011;54351;49.108;1.502;2023-01-25T00:00:45;371.60;;;344.58;;
67503;SDS011;54351;49.108;1.502;2023-01-25T00:03:11;357.58;;;331.50;;
67503;SDS011;54351;49.108;1.502;2023-01-25T00:05:37;389.30;;;361.92;;
67503;SDS011;54351;49.108;1.502;2023-01-25T00:08:03;375.20;;;348.58;;
67503;SDS011;54351;49.108;1.502;2023-01-25T00:10:31;364.58;;;338.52;;
67503;SDS011;54351;49.108;1.502;2023-01-25T00:12:57;384.25;;;357.00;;
67503;SDS011;54351;49.108;1.502;2023-01-25T00:15:23;366.42;;;340.33;;
67503;SDS011;54351;49.108;1.502;2023-01-25T00:17:49;350.15;;;325.05;;
67503;SDS011;54351;49.108;1.502;2023-01-25T00:20:15;369.67;;;343.20;;
67503;SDS011;54351;49.108;1.502;2023-01-25T00:22:41;351.75;;;326.58;;
67503;SDS011;54351;49.108;1.502;2023-01-25T00:25:08;371.55;;;345.35;;
67503;SDS011;54351;49.108;1.502;2023-01-25T00:27:34;352.65;;;327.45;;
67503;SDS011;54351;49.108;1.502;2023-01-25T00:30:00;373.25;;;346.02;;
67503;SDS011;54351;49.108;1.502;2023-01-25T00:32:28;334.73;;;311.00;;
67503;SDS011;54351;49.108;1.502;2023-01-25T00:34:57;325.40;;;300.80;;
67503;SDS011;54351;49.108;1.502;2023-01-25T00:37:28;348.25;;;322.77;;
67503;SDS011;54351;49.108;1.502;2023-01-25T00:39:54;349.08;;;323.35;;
67503;SDS011;54351;49.108;1.502;2023-01-25T00:42:21;310.02;;;287.08;;
67503;SDS011;54351;49.108;1.502;2023-01-25T00:44:47;311.85;;;289.38;;
67503;SDS011;54351;49.108;1.502;2023-01-25T00:47:13;334.73;;;311.08;;
67503;SDS011;54351;49.108;1.502;2023-01-25T00:49:40;347.13;;;322.05;;
67503;SDS011;54351;49.108;1.502;2023-01-25T00:52:07;328.33;;;304.05;;
67503;SDS011;54351;49.108;1.502;2023-01-25T00:54:34;342.30;;;317.67;;
67503;SDS011;54351;49.108;1.502;2023-01-25T00:57:00;344.13;;;319.30;;
67503;SDS011;54351;49.108;1.502;2023-01-25T00:59:26;335.08;;;310.25;;
67503;SDS011;54351;49.108;1.502;2023-01-25T01:01:52;330.25;;;306.48;;
67503;SDS011;54351;49.108;1.502;2023-01-25T01:04:19;315.85;;;292.63;;
67503;SDS011;54351;49.108;1.502;2023-01-25T01:06:49;330.95;;;307.00;;
67503;SDS011;54351;49.108;1.502;2023-01-25T01:09:16;313.27;;;290.98;;
67503;SDS011;54351;49.108;1.502;2023-01-25T01:11:42;308.40;;;286.08;;
67503;SDS011;54351;49.108;1.502;2023-01-25T01:14:09;303.02;;;281.50;;
67503;SDS011;54351;49.108;1.502;2023-01-25T01:16:35;290.13;;;268.40;;
67503;SDS011;54351;49.108;1.502;2023-01-25T01:19:01;291.83;;;270.25;;
67503;SDS011;54351;49.108;1.502;2023-01-25T01:21:27;301.25;;;279.73;;
67503;SDS011;54351;49.108;1.502;2023-01-25T01:23:54;280.85;;;259.55;;
67503;SDS011;54351;49.108;1.502;2023-01-25T01:26:20;302.17;;;279.48;;
67503;SDS011;54351;49.108;1.502;2023-01-25T01:28:46;285.92;;;263.35;;
67503;SDS011;54351;49.108;1.502;2023-01-25T01:31:16;294.52;;;272.08;;
67503;SDS011;54351;49.108;1.502;2023-01-25T01:33:43;289.80;;;267.98;;
67503;SDS011;54351;49.108;1.502;2023-01-25T01:36:13;285.42;;;263.27;;
67503;SDS011;54351;49.108;1.502;2023-01-25T01:38:40;286.27;;;263.42;;
67503;SDS011;54351;49.108;1.502;2023-01-25T01:41:06;289.98;;;266.63;;
67503;SDS011;54351;49.108;1.502;2023-01-25T01:43:32;276.73;;;254.43;;
67503;SDS011;54351;49.108;1.502;2023-01-25T01:45:59;269.98;;;248.95;;
67503;SDS011;54351;49.108;1.502;2023-01-25T01:51:12;268.02;;;246.93;;
67503;SDS011;54351;49.108;1.502;2023-01-25T01:53:40;276.67;;;254.23;;
67503;SDS011;54351;49.108;1.502;2023-01-25T01:56:10;278.73;;;256.95;;
67503;SDS011;54351;49.108;1.502;2023-01-25T01:58:37;272.35;;;250.75;;
67503;SDS011;54351;49.108;1.502;2023-01-25T02:01:03;263.58;;;242.85;;
67503;SDS011;54351;49.108;1.502;2023-01-25T02:03:29;268.85;;;247.07;;
67503;SDS011;54351;49.108;1.502;2023-01-25T02:05:57;287.33;;;263.75;;
67503;SDS011;54351;49.108;1.502;2023-01-25T02:08:25;259.58;;;239.80;;
67503;SDS011;54351;49.108;1.502;2023-01-25T02:10:52;269.45;;;248.13;;
67503;SDS011;54351;49.108;1.502;2023-01-25T02:13:18;254.98;;;233.95;;
67503;SDS011;54351;49.108;1.502;2023-01-25T02:15:46;263.90;;;242.52;;
67503;SDS011;54351;49.108;1.502;2023-01-25T02:18:12;249.38;;;229.98;;
67503;SDS011;54351;49.108;1.502;2023-01-25T02:20:39;258.90;;;237.63;;
67503;SDS011;54351;49.108;1.502;2023-01-25T02:25:32;270.70;;;248.23;;
67503;SDS011;54351;49.108;1.502;2023-01-25T02:28:01;266.92;;;245.50;;
67503;SDS011;54351;49.108;1.502;2023-01-25T02:30:29;258.42;;;237.63;;
67503;SDS011;54351;49.108;1.502;2023-01-25T02:32:55;250.60;;;230.10;;
67503;SDS011;54351;49.108;1.502;2023-01-25T02:35:36;264.27;;;243.00;;
67503;SDS011;54351;49.108;1.502;2023-01-25T02:38:02;286.25;;;262.90;;
67503;SDS011;54351;49.108;1.502;2023-01-25T02:40:29;284.83;;;262.58;;
67503;SDS011;54351;49.108;1.502;2023-01-25T02:42:56;273.60;;;250.70;;
67503;SDS011;54351;49.108;1.502;2023-01-25T02:45:23;247.73;;;228.13;;
67503;SDS011;54351;49.108;1.502;2023-01-25T02:47:51;252.25;;;231.57;;
67503;SDS011;54351;49.108;1.502;2023-01-25T02:50:17;265.90;;;244.15;;
67503;SDS011;54351;49.108;1.502;2023-01-25T02:52:43;260.10;;;239.77;;
67503;SDS011;54351;49.108;1.502;2023-01-25T02:55:09;262.80;;;240.80;;
67503;SDS011;54351;49.108;1.502;2023-01-25T02:57:35;285.15;;;260.88;;
67503;SDS011;54351;49.108;1.502;2023-01-25T03:00:02;301.27;;;275.83;;
67503;SDS011;54351;49.108;1.502;2023-01-25T03:02:29;287.83;;;264.45;;
67503;SDS011;54351;49.108;1.502;2023-01-25T03:04:56;252.55;;;232.60;;
67503;SDS011;54351;49.108;1.502;2023-01-25T03:07:22;259.17;;;238.40;;
67503;SDS011;54351;49.108;1.502;2023-01-25T03:09:48;257.15;;;236.38;;
67503;SDS011;54351;49.108;1.502;2023-01-25T03:12:14;258.20;;;237.50;;
67503;SDS011;54351;49.108;1.502;2023-01-25T03:14:40;303.70;;;277.88;;
67503;SDS011;54351;49.108;1.502;2023-01-25T03:17:08;297.38;;;272.40;;
67503;SDS011;54351;49.108;1.502;2023-01-25T03:19:34;285.73;;;261.70;;
67503;SDS011;54351;49.108;1.502;2023-01-25T03:22:01;306.88;;;281.35;;
67503;SDS011;54351;49.108;1.502;2023-01-25T03:24:27;305.45;;;279.70;;
67503;SDS011;54351;49.108;1.502;2023-01-25T03:26:53;304.05;;;278.63;;
67503;SDS011;54351;49.108;1.502;2023-01-25T03:29:38;276.80;;;254.52;;
67503;SDS011;54351;49.108;1.502;2023-01-25T03:32:05;256.40;;;235.57;;
67503;SDS011;54351;49.108;1.502;2023-01-25T03:34:31;254.15;;;234.20;;
67503;SDS011;54351;49.108;1.502;2023-01-25T03:36:57;270.60;;;249.27;;
67503;SDS011;54351;49.108;1.502;2023-01-25T03:39:23;267.40;;;246.43;;
67503;SDS011;54351;49.108;1.502;2023-01-25T03:41:49;271.60;;;250.38;;
67503;SDS011;54351;49.108;1.502;2023-01-25T03:44:16;251.30;;;232.00;;
67503;SDS011;54351;49.108;1.502;2023-01-25T03:46:42;290.48;;;267.92;;
67503;SDS011;54351;49.108;1.502;2023-01-25T03:49:08;280.13;;;258.38;;
67503;SDS011;54351;49.108;1.502;2023-01-25T03:51:34;270.80;;;249.05;;
67503;SDS011;54351;49.108;1.502;2023-01-25T03:54:00;278.75;;;256.63;;
67503;SDS011;54351;49.108;1.502;2023-01-25T03:56:26;286.58;;;263.85;;
67503;SDS011;54351;49.108;1.502;2023-01-25T03:58:52;263.48;;;241.63;;
67503;SDS011;54351;49.108;1.502;2023-01-25T04:01:18;300.08;;;276.63;;
67503;SDS011;54351;49.108;1.502;2023-01-25T04:03:44;324.58;;;298.58;;
67503;SDS011;54351;49.108;1.502;2023-01-25T04:06:10;273.88;;;251.60;;
67503;SDS011;54351;49.108;1.502;2023-01-25T04:08:36;256.73;;;237.20;;
67503;SDS011;54351;49.108;1.502;2023-01-25T04:11:04;269.02;;;247.68;;
67503;SDS011;54351;49.108;1.502;2023-01-25T04:13:30;255.07;;;234.90;;
67503;SDS011;54351;49.108;1.502;2023-01-25T04:15:59;251.60;;;232.05;;
67503;SDS011;54351;49.108;1.502;2023-01-25T04:18:25;242.38;;;223.93;;
67503;SDS011;54351;49.108;1.502;2023-01-25T04:20:52;252.32;;;233.68;;
67503;SDS011;54351;49.108;1.502;2023-01-25T04:23:18;244.30;;;226.02;;
67503;SDS011;54351;49.108;1.502;2023-01-25T04:25:51;246.35;;;226.95;;
67503;SDS011;54351;49.108;1.502;2023-01-25T04:28:17;283.52;;;261.80;;
67503;SDS011;54351;49.108;1.502;2023-01-25T04:30:43;275.42;;;254.60;;
67503;SDS011;54351;49.108;1.502;2023-01-25T04:33:10;275.83;;;255.70;;
67503;SDS011;54351;49.108;1.502;2023-01-25T04:35:36;283.25;;;263.40;;
67503;SDS011;54351;49.108;1.502;2023-01-25T04:38:02;282.92;;;261.80;;
67503;SDS011;54351;49.108;1.502;2023-01-25T04:40:29;264.63;;;244.27;;
67503;SDS011;54351;49.108;1.502;2023-01-25T04:42:55;261.58;;;241.48;;
67503;SDS011;54351;49.108;1.502;2023-01-25T04:45:22;257.45;;;238.32;;
67503;SDS011;54351;49.108;1.502;2023-01-25T04:47:49;257.58;;;237.98;;
67503;SDS011;54351;49.108;1.502;2023-01-25T04:50:15;285.88;;;263.92;;
67503;SDS011;54351;49.108;1.502;2023-01-25T04:52:41;269.80;;;249.90;;
67503;SDS011;54351;49.108;1.502;2023-01-25T04:55:07;288.52;;;266.90;;
67503;SDS011;54351;49.108;1.502;2023-01-25T04:57:33;292.23;;;270.10;;
67503;SDS011;54351;49.108;1.502;2023-01-25T04:59:59;251.85;;;233.55;;
67503;SDS011;54351;49.108;1.502;2023-01-25T05:02:25;268.92;;;249.13;;
67503;SDS011;54351;49.108;1.502;2023-01-25T05:04:52;280.35;;;260.48;;
67503;SDS011;54351;49.108;1.502;2023-01-25T05:07:18;296.55;;;273.40;;
67503;SDS011;54351;49.108;1.502;2023-01-25T05:09:44;284.48;;;263.15;;
67503;SDS011;54351;49.108;1.502;2023-01-25T05:12:10;308.60;;;285.02;;
67503;SDS011;54351;49.108;1.502;2023-01-25T05:14:40;286.35;;;263.65;;
67503;SDS011;54351;49.108;1.502;2023-01-25T05:17:06;269.05;;;248.55;;
67503;SDS011;54351;49.108;1.502;2023-01-25T05:19:33;274.42;;;252.93;;
67503;SDS011;54351;49.108;1.502;2023-01-25T05:22:00;259.70;;;240.38;;
67503;SDS011;54351;49.108;1.502;2023-01-25T05:24:30;264.58;;;244.15;;
67503;SDS011;54351;49.108;1.502;2023-01-25T05:26:57;272.08;;;251.95;;
67503;SDS011;54351;49.108;1.502;2023-01-25T05:29:30;249.65;;;231.20;;
67503;SDS011;54351;49.108;1.502;2023-01-25T05:31:59;252.27;;;233.25;;
67503;SDS011;54351;49.108;1.502;2023-01-25T05:34:25;254.80;;;235.70;;
67503;SDS011;54351;49.108;1.502;2023-01-25T05:36:51;251.60;;;233.48;;
67503;SDS011;54351;49.108;1.502;2023-01-25T05:39:17;258.35;;;239.77;;
67503;SDS011;54351;49.108;1.502;2023-01-25T05:41:43;246.50;;;229.05;;
67503;SDS011;54351;49.108;1.502;2023-01-25T05:44:09;247.32;;;229.25;;
67503;SDS011;54351;49.108;1.502;2023-01-25T05:46:35;261.70;;;242.30;;
67503;SDS011;54351;49.108;1.502;2023-01-25T05:49:01;285.88;;;263.25;;
67503;SDS011;54351;49.108;1.502;2023-01-25T05:51:27;286.73;;;264.15;;
67503;SDS011;54351;49.108;1.502;2023-01-25T05:53:54;259.75;;;240.23;;
67503;SDS011;54351;49.108;1.502;2023-01-25T05:56:20;278.30;;;256.52;;
67503;SDS011;54351;49.108;1.502;2023-01-25T05:58:46;310.88;;;285.98;;
67503;SDS011;54351;49.108;1.502;2023-01-25T06:01:12;250.07;;;231.27;;
67503;SDS011;54351;49.108;1.502;2023-01-25T06:03:38;279.10;;;257.40;;
67503;SDS011;54351;49.108;1.502;2023-01-25T06:06:05;281.45;;;260.02;;
67503;SDS011;54351;49.108;1.502;2023-01-25T06:08:31;286.58;;;265.08;;
67503;SDS011;54351;49.108;1.502;2023-01-25T06:10:57;296.58;;;273.63;;
67503;SDS011;54351;49.108;1.502;2023-01-25T06:13:23;291.77;;;268.63;;
67503;SDS011;54351;49.108;1.502;2023-01-25T06:15:53;262.05;;;241.80;;
67503;SDS011;54351;49.108;1.502;2023-01-25T06:18:19;287.25;;;264.60;;
67503;SDS011;54351;49.108;1.502;2023-01-25T06:20:46;311.25;;;287.02;;
67503;SDS011;54351;49.108;1.502;2023-01-25T06:23:12;347.75;;;321.38;;
67503;SDS011;54351;49.108;1.502;2023-01-25T06:25:38;276.38;;;256.02;;
67503;SDS011;54351;49.108;1.502;2023-01-25T06:28:04;254.77;;;236.30;;
67503;SDS011;54351;49.108;1.502;2023-01-25T06:30:30;233.77;;;216.45;;
67503;SDS011;54351;49.108;1.502;2023-01-25T06:32:57;238.35;;;220.88;;
67503;SDS011;54351;49.108;1.502;2023-01-25T06:35:23;278.58;;;257.55;;
67503;SDS011;54351;49.108;1.502;2023-01-25T06:37:49;238.00;;;220.75;;
67503;SDS011;54351;49.108;1.502;2023-01-25T06:40:15;281.90;;;260.55;;
67503;SDS011;54351;49.108;1.502;2023-01-25T06:42:42;290.88;;;269.35;;
67503;SDS011;54351;49.108;1.502;2023-01-25T06:45:09;258.15;;;239.18;;
67503;SDS011;54351;49.108;1.502;2023-01-25T06:47:35;245.23;;;229.55;;
67503;SDS011;54351;49.108;1.502;2023-01-25T06:50:02;234.50;;;218.63;;
67503;SDS011;54351;49.108;1.502;2023-01-25T06:52:28;239.15;;;223.60;;
67503;SDS011;54351;49.108;1.502;2023-01-25T06:54:55;301.40;;;281.95;;
67503;SDS011;54351;49.108;1.502;2023-01-25T06:57:22;353.23;;;330.30;;
67503;SDS011;54351;49.108;1.502;2023-01-25T06:59:48;349.85;;;326.70;;
67503;SDS011;54351;49.108;1.502;2023-01-25T07:02:14;322.08;;;301.13;;
67503;SDS011;54351;49.108;1.502;2023-01-25T07:04:40;344.55;;;321.92;;
67503;SDS011;54351;49.108;1.502;2023-01-25T07:07:07;357.48;;;334.65;;
67503;SDS011;54351;49.108;1.502;2023-01-25T07:09:33;359.58;;;335.85;;
67503;SDS011;54351;49.108;1.502;2023-01-25T07:11:59;350.23;;;327.08;;
67503;SDS011;54351;49.108;1.502;2023-01-25T07:14:26;335.75;;;313.95;;
67503;SDS011;54351;49.108;1.502;2023-01-25T07:16:52;276.52;;;258.58;;
67503;SDS011;54351;49.108;1.502;2023-01-25T07:19:18;279.70;;;261.58;;
67503;SDS011;54351;49.108;1.502;2023-01-25T07:21:44;304.95;;;285.17;;
67503;SDS011;54351;49.108;1.502;2023-01-25T07:24:12;335.42;;;313.05;;
67503;SDS011;54351;49.108;1.502;2023-01-25T07:26:38;330.48;;;308.80;;
67503;SDS011;54351;49.108;1.502;2023-01-25T07:29:04;298.85;;;278.55;;
67503;SDS011;54351;49.108;1.502;2023-01-25T07:31:31;325.35;;;303.52;;
67503;SDS011;54351;49.108;1.502;2023-01-25T07:33:57;315.83;;;294.95;;
67503;SDS011;54351;49.108;1.502;2023-01-25T07:36:23;274.23;;;255.77;;
67503;SDS011;54351;49.108;1.502;2023-01-25T07:38:53;312.60;;;292.00;;
67503;SDS011;54351;49.108;1.502;2023-01-25T07:41:20;306.20;;;286.30;;
67503;SDS011;54351;49.108;1.502;2023-01-25T07:43:46;303.73;;;283.55;;
67503;SDS011;54351;49.108;1.502;2023-01-25T07:46:13;290.17;;;271.00;;
67503;SDS011;54351;49.108;1.502;2023-01-25T07:48:43;273.23;;;255.15;;
67503;SDS011;54351;49.108;1.502;2023-01-25T07:51:12;292.10;;;272.83;;
67503;SDS011;54351;49.108;1.502;2023-01-25T07:53:48;382.50;;;356.50;;
67503;SDS011;54351;49.108;1.502;2023-01-25T07:56:16;293.83;;;273.50;;
67503;SDS011;54351;49.108;1.502;2023-01-25T07:58:43;277.15;;;258.88;;
67503;SDS011;54351;49.108;1.502;2023-01-25T08:01:10;286.85;;;268.50;;
67503;SDS011;54351;49.108;1.502;2023-01-25T08:03:36;270.08;;;252.57;;
67503;SDS011;54351;49.108;1.502;2023-01-25T08:06:03;279.95;;;261.15;;
67503;SDS011;54351;49.108;1.502;2023-01-25T08:08:30;275.27;;;257.35;;
67503;SDS011;54351;49.108;1.502;2023-01-25T08:10:58;277.30;;;259.35;;
67503;SDS011;54351;49.108;1.502;2023-01-25T08:13:24;270.48;;;252.43;;
67503;SDS011;54351;49.108;1.502;2023-01-25T08:15:54;253.23;;;235.60;;
67503;SDS011;54351;49.108;1.502;2023-01-25T08:18:20;262.17;;;244.52;;
67503;SDS011;54351;49.108;1.502;2023-01-25T08:20:46;266.75;;;249.35;;
67503;SDS011;54351;49.108;1.502;2023-01-25T08:23:13;271.58;;;253.60;;
67503;SDS011;54351;49.108;1.502;2023-01-25T08:25:39;265.55;;;247.63;;
67503;SDS011;54351;49.108;1.502;2023-01-25T08:28:05;259.33;;;242.23;;
67503;SDS011;54351;49.108;1.502;2023-01-25T08:30:32;275.38;;;256.83;;
67503;SDS011;54351;49.108;1.502;2023-01-25T08:32:58;284.75;;;265.60;;
67503;SDS011;54351;49.108;1.502;2023-01-25T08:35:24;289.92;;;269.45;;
67503;SDS011;54351;49.108;1.502;2023-01-25T08:37:50;330.83;;;307.30;;
67503;SDS011;54351;49.108;1.502;2023-01-25T08:40:16;299.42;;;278.80;;
67503;SDS011;54351;49.108;1.502;2023-01-25T08:42:42;293.65;;;274.20;;
67503;SDS011;54351;49.108;1.502;2023-01-25T08:45:09;278.98;;;260.75;;
67503;SDS011;54351;49.108;1.502;2023-01-25T08:47:35;278.92;;;260.52;;
67503;SDS011;54351;49.108;1.502;2023-01-25T08:50:01;302.45;;;282.63;;
67503;SDS011;54351;49.108;1.502;2023-01-25T08:52:27;284.55;;;265.95;;
67503;SDS011;54351;49.108;1.502;2023-01-25T08:54:53;314.17;;;292.17;;
67503;SDS011;54351;49.108;1.502;2023-01-25T08:57:19;334.05;;;310.20;;
67503;SDS011;54351;49.108;1.502;2023-01-25T08:59:45;298.70;;;277.58;;
67503;SDS011;54351;49.108;1.502;2023-01-25T09:02:11;343.17;;;318.60;;
67503;SDS011;54351;49.108;1.502;2023-01-25T09:04:37;302.70;;;281.17;;
67503;SDS011;54351;49.108;1.502;2023-01-25T09:07:04;289.55;;;268.63;;
67503;SDS011;54351;49.108;1.502;2023-01-25T09:09:30;371.98;;;344.70;;
67503;SDS011;54351;49.108;1.502;2023-01-25T09:11:56;272.48;;;253.05;;
67503;SDS011;54351;49.108;1.502;2023-01-25T09:14:22;288.30;;;267.83;;
67503;SDS011;54351;49.108;1.502;2023-01-25T09:16:48;295.63;;;275.10;;
67503;SDS011;54351;49.108;1.502;2023-01-25T09:19:14;276.67;;;257.13;;
67503;SDS011;54351;49.108;1.502;2023-01-25T09:21:40;321.73;;;298.50;;
67503;SDS011;54351;49.108;1.502;2023-01-25T09:24:06;350.73;;;325.13;;
67503;SDS011;54351;49.108;1.502;2023-01-25T09:26:34;306.05;;;284.65;;
67503;SDS011;54351;49.108;1.502;2023-01-25T09:29:00;327.33;;;303.50;;
67503;SDS011;54351;49.108;1.502;2023-01-25T09:31:26;347.65;;;321.73;;
67503;SDS011;54351;49.108;1.502;2023-01-25T09:33:54;309.13;;;286.00;;
67503;SDS011;54351;49.108;1.502;2023-01-25T09:36:21;340.30;;;315.30;;
67503;SDS011;54351;49.108;1.502;2023-01-25T09:38:48;370.70;;;343.63;;
67503;SDS011;54351;49.108;1.502;2023-01-25T09:41:34;370.88;;;343.48;;
67503;SDS011;54351;49.108;1.502;2023-01-25T09:46:40;340.17;;;315.73;;
67503;SDS011;54351;49.108;1.502;2023-01-25T09:51:41;299.05;;;278.02;;
67503;SDS011;54351;49.108;1.502;2023-01-25T09:54:11;240.70;;;223.05;;
67503;SDS011;54351;49.108;1.502;2023-01-25T09:56:38;295.98;;;274.67;;
67503;SDS011;54351;49.108;1.502;2023-01-25T09:59:07;286.45;;;265.00;;
67503;SDS011;54351;49.108;1.502;2023-01-25T10:06:41;433.40;;;401.17;;
67503;SDS011;54351;49.108;1.502;2023-01-25T10:11:35;392.60;;;363.38;;
67503;SDS011;54351;49.108;1.502;2023-01-25T10:14:06;337.65;;;311.92;;
67503;SDS011;54351;49.108;1.502;2023-01-25T10:21:56;284.08;;;261.88;;
67503;SDS011;54351;49.108;1.502;2023-01-25T10:27:01;364.17;;;334.83;;
67503;SDS011;54351;49.108;1.502;2023-01-25T10:29:32;345.20;;;317.63;;
67503;SDS011;54351;49.108;1.502;2023-01-25T10:32:01;361.67;;;333.15;;
67503;SDS011;54351;49.108;1.502;2023-01-25T10:34:42;386.70;;;357.00;;
67503;SDS011;54351;49.108;1.502;2023-01-25T10:37:21;414.67;;;382.42;;
67503;SDS011;54351;49.108;1.502;2023-01-25T10:42:19;510.13;;;472.15;;
67503;SDS011;54351;49.108;1.502;2023-01-25T10:44:45;480.75;;;443.67;;
67503;SDS011;54351;49.108;1.502;2023-01-25T10:49:50;370.02;;;341.02;;
67503;SDS011;54351;49.108;1.502;2023-01-25T10:52:21;391.75;;;362.10;;
67503;SDS011;54351;49.108;1.502;2023-01-25T10:54:48;400.67;;;370.38;;
67503;SDS011;54351;49.108;1.502;2023-01-25T10:57:16;365.75;;;337.45;;
67503;SDS011;54351;49.108;1.502;2023-01-25T10:59:47;362.13;;;334.70;;
67503;SDS011;54351;49.108;1.502;2023-01-25T11:05:09;345.77;;;318.70;;
67503;SDS011;54351;49.108;1.502;2023-01-25T11:07:40;235.02;;;215.00;;
67503;SDS011;54351;49.108;1.502;2023-01-25T11:10:18;295.45;;;272.42;;
67503;SDS011;54351;49.108;1.502;2023-01-25T11:15:36;308.60;;;283.98;;
67503;SDS011;54351;49.108;1.502;2023-01-25T11:18:06;325.52;;;298.98;;
67503;SDS011;54351;49.108;1.502;2023-01-25T11:20:32;427.50;;;393.17;;
67503;SDS011;54351;49.108;1.502;2023-01-25T11:22:58;442.45;;;409.02;;
67503;SDS011;54351;49.108;1.502;2023-01-25T11:25:25;430.92;;;398.20;;
67503;SDS011;54351;49.108;1.502;2023-01-25T11:28:07;425.58;;;392.60;;
67503;SDS011;54351;49.108;1.502;2023-01-25T11:30:34;391.95;;;362.75;;
67503;SDS011;54351;49.108;1.502;2023-01-25T11:33:00;281.17;;;259.45;;
67503;SDS011;54351;49.108;1.502;2023-01-25T11:35:28;377.25;;;348.20;;
67503;SDS011;54351;49.108;1.502;2023-01-25T11:45:48;120.97;;;106.57;;
67503;SDS011;54351;49.108;1.502;2023-01-25T12:01:24;145.07;;;130.82;;
67503;SDS011;54351;49.108;1.502;2023-01-25T12:09:19;178.52;;;162.63;;
67503;SDS011;54351;49.108;1.502;2023-01-25T12:19:46;210.23;;;192.10;;
67503;SDS011;54351;49.108;1.502;2023-01-25T12:29:37;205.68;;;187.07;;
67503;SDS011;54351;49.108;1.502;2023-01-25T12:34:39;250.27;;;227.63;;
67503;SDS011;54351;49.108;1.502;2023-01-25T12:37:12;346.60;;;316.73;;
67503;SDS011;54351;49.108;1.502;2023-01-25T12:39:41;402.85;;;368.33;;
67503;SDS011;54351;49.108;1.502;2023-01-25T12:42:17;196.57;;;177.18;;
67503;SDS011;54351;49.108;1.502;2023-01-25T12:44:51;362.15;;;330.65;;
67503;SDS011;54351;49.108;1.502;2023-01-25T12:49:56;331.65;;;303.27;;
67503;SDS011;54351;49.108;1.502;2023-01-25T12:52:29;265.25;;;240.45;;
67503;SDS011;54351;49.108;1.502;2023-01-25T12:54:59;228.05;;;207.18;;
67503;SDS011;54351;49.108;1.502;2023-01-25T12:57:32;340.60;;;311.85;;
67503;SDS011;54351;49.108;1.502;2023-01-25T13:07:50;391.75;;;360.88;;
67503;SDS011;54351;49.108;1.502;2023-01-25T13:10:26;203.60;;;184.10;;
67503;SDS011;54351;49.108;1.502;2023-01-25T13:12:58;201.80;;;182.05;;
67503;SDS011;54351;49.108;1.502;2023-01-25T13:15:33;412.77;;;378.92;;
67503;SDS011;54351;49.108;1.502;2023-01-25T13:18:00;273.98;;;248.93;;
67503;SDS011;54351;49.108;1.502;2023-01-25T13:23:28;357.60;;;326.73;;
67503;SDS011;54351;49.108;1.502;2023-01-25T13:26:07;381.55;;;349.80;;
67503;SDS011;54351;49.108;1.502;2023-01-25T13:28:40;345.45;;;315.75;;
67503;SDS011;54351;49.108;1.502;2023-01-25T13:31:07;421.33;;;386.35;;
67503;SDS011;54351;49.108;1.502;2023-01-25T13:33:33;446.23;;;409.83;;
67503;SDS011;54351;49.108;1.502;2023-01-25T13:38:44;505.48;;;462.98;;
67503;SDS011;54351;49.108;1.502;2023-01-25T13:41:11;417.83;;;382.90;;
67503;SDS011;54351;49.108;1.502;2023-01-25T13:43:40;340.02;;;310.45;;
67503;SDS011;54351;49.108;1.502;2023-01-25T13:46:07;356.13;;;324.35;;
67503;SDS011;54351;49.108;1.502;2023-01-25T13:48:33;302.88;;;275.52;;
67503;SDS011;54351;49.108;1.502;2023-01-25T13:51:01;265.17;;;241.23;;
67503;SDS011;54351;49.108;1.502;2023-01-25T13:53:28;280.58;;;255.40;;
67503;SDS011;54351;49.108;1.502;2023-01-25T13:55:59;317.38;;;290.08;;
67503;SDS011;54351;49.108;1.502;2023-01-25T13:58:33;403.00;;;368.98;;
67503;SDS011;54351;49.108;1.502;2023-01-25T14:01:01;443.73;;;408.20;;
67503;SDS011;54351;49.108;1.502;2023-01-25T14:03:33;325.27;;;298.25;;
67503;SDS011;54351;49.108;1.502;2023-01-25T14:05:59;550.45;;;506.45;;
67503;SDS011;54351;49.108;1.502;2023-01-25T14:08:26;447.95;;;410.40;;
67503;SDS011;54351;49.108;1.502;2023-01-25T14:10:53;505.67;;;463.17;;
67503;SDS011;54351;49.108;1.502;2023-01-25T14:13:20;490.83;;;449.98;;
67503;SDS011;54351;49.108;1.502;2023-01-25T14:15:53;366.05;;;334.17;;
67503;SDS011;54351;49.108;1.502;2023-01-25T14:18:20;670.13;;;616.53;;
67503;SDS011;54351;49.108;1.502;2023-01-25T14:20:47;534.85;;;490.27;;
67503;SDS011;54351;49.108;1.502;2023-01-25T14:23:27;435.25;;;396.65;;
67503;SDS011;54351;49.108;1.502;2023-01-25T14:25:54;526.75;;;483.17;;
67503;SDS011;54351;49.108;1.502;2023-01-25T14:28:22;523.38;;;480.15;;
67503;SDS011;54351;49.108;1.502;2023-01-25T14:30:53;366.75;;;334.95;;
67503;SDS011;54351;49.108;1.502;2023-01-25T14:35:55;408.48;;;374.15;;
67503;SDS011;54351;49.108;1.502;2023-01-25T14:38:28;345.20;;;314.95;;
67503;SDS011;54351;49.108;1.502;2023-01-25T14:40:59;418.25;;;382.50;;
67503;SDS011;54351;49.108;1.502;2023-01-25T14:43:26;513.88;;;469.42;;
67503;SDS011;54351;49.108;1.502;2023-01-25T14:45:53;355.30;;;323.85;;
67503;SDS011;54351;49.108;1.502;2023-01-25T14:51:04;207.27;;;188.88;;
67503;SDS011;54351;49.108;1.502;2023-01-25T14:53:34;281.25;;;255.77;;
67503;SDS011;54351;49.108;1.502;2023-01-25T14:56:04;232.15;;;210.82;;
67503;SDS011;54351;49.108;1.502;2023-01-25T14:58:30;291.65;;;265.58;;
67503;SDS011;54351;49.108;1.502;2023-01-25T15:01:00;188.30;;;169.90;;
67503;SDS011;54351;49.108;1.502;2023-01-25T15:03:28;255.88;;;233.32;;
67503;SDS011;54351;49.108;1.502;2023-01-25T15:05:54;305.17;;;277.77;;
67503;SDS011;54351;49.108;1.502;2023-01-25T15:08:27;361.90;;;330.02;;
67503;SDS011;54351;49.108;1.502;2023-01-25T15:10:55;241.15;;;218.80;;
67503;SDS011;54351;49.108;1.502;2023-01-25T15:13:23;229.48;;;207.38;;
67503;SDS011;54351;49.108;1.502;2023-01-25T15:15:50;249.98;;;227.88;;
67503;SDS011;54351;49.108;1.502;2023-01-25T15:21:01;222.02;;;200.95;;
67503;SDS011;54351;49.108;1.502;2023-01-25T15:23:27;223.13;;;202.32;;
67503;SDS011;54351;49.108;1.502;2023-01-25T15:25:55;184.57;;;165.88;;
67503;SDS011;54351;49.108;1.502;2023-01-25T15:28:22;184.40;;;165.95;;
67503;SDS011;54351;49.108;1.502;2023-01-25T15:30:48;274.42;;;248.55;;
67503;SDS011;54351;49.108;1.502;2023-01-25T15:33:18;192.43;;;174.55;;
67503;SDS011;54351;49.108;1.502;2023-01-25T15:35:45;251.25;;;229.90;;
67503;SDS011;54351;49.108;1.502;2023-01-25T15:38:12;202.90;;;183.38;;
67503;SDS011;54351;49.108;1.502;2023-01-25T15:40:39;220.35;;;199.65;;
67503;SDS011;54351;49.108;1.502;2023-01-25T15:43:07;292.73;;;268.05;;